Time;durP1;ratioP1;P1;durP2;ratioP2;P2;SDS_P1;SDS_P2;PMS_P1;PMS_P2;Temp;Humidity;BMP_temperature;BMP_pressure;BME280_temperature;BME280_humidity;BME280_pressure;Samples;Min_cycle;Max_cycle;Signal;HPM_P1;HPM_P2
2023/03/27 00:02:24;;;;;;;;;;;8.90;92.90;;;;;;5056627;28;20378;-85
2023/03/27 00:04:53;;;;;;;;;;;8.90;92.90;;;;;;5066865;28;19936;-81
2023/03/27 00:07:21;;;;;;;;;;;8.90;92.90;;;;;;5054873;28;19928;-80
2023/03/27 00:09:48;;;;;;;;;;;8.90;93.00;;;;;;5048448;28;20569;-81
2023/03/27 00:12:14;;;;;;;;;;;8.90;92.90;;;;;;5058430;28;20212;-78
2023/03/27 00:14:41;;;;;;;;;;;8.80;92.90;;;;;;5055899;28;19936;-81
2023/03/27 00:17:08;;;;;;;;;;;8.80;92.90;;;;;;5056119;28;19933;-83
2023/03/27 00:19:35;;;;;;;;;;;8.80;93.00;;;;;;5053374;28;20223;-81
2023/03/27 00:22:02;;;;;;;;;;;8.80;93.00;;;;;;5052454;28;20609;-80
2023/03/27 00:24:31;;;;;;;;;;;8.80;93.00;;;;;;5058993;28;19940;-81
2023/03/27 00:26:57;;;;;;;;;;;8.80;93.00;;;;;;5057952;28;20051;-79
2023/03/27 00:29:24;;;;;;;;;;;8.80;93.00;;;;;;5052568;28;19937;-82
2023/03/27 00:31:50;;;;;;;;;;;8.70;93.00;;;;;;5044262;28;19939;-80
2023/03/27 00:34:17;;;;;;;;;;;8.70;93.00;;;;;;5058769;28;19924;-83
2023/03/27 00:36:47;;;;;;;;;;;8.70;92.90;;;;;;5057395;28;19951;-83
2023/03/27 00:39:13;;;;;;;;;;;8.80;93.00;;;;;;5053667;28;19932;-80
2023/03/27 00:41:43;;;;;;;;;;;8.70;93.00;;;;;;5052092;28;19929;-78
2023/03/27 00:44:20;;;;;;;;;;;8.70;93.00;;;;;;5058143;28;20165;-79
2023/03/27 00:46:48;;;;;;;;;;;8.70;93.00;;;;;;5065788;28;20566;-81
2023/03/27 00:49:16;;;;;;;;;;;8.70;93.00;;;;;;5063226;28;19928;-82
2023/03/27 00:51:45;;;;;;;;;;;8.70;92.90;;;;;;5042394;28;20764;-82
2023/03/27 00:54:15;;;;;;;;;;;8.60;92.90;;;;;;5049899;28;19929;-79
2023/03/27 00:56:43;;;;;;;;;;;8.60;92.80;;;;;;5057294;28;20000;-79
2023/03/27 00:59:11;;;;;;;;;;;8.60;92.70;;;;;;5049165;28;19928;-81
2023/03/27 01:01:38;;;;;;;;;;;8.60;92.70;;;;;;5047205;28;19928;-82
2023/03/27 01:04:06;;;;;;;;;;;8.60;92.60;;;;;;5046264;28;19929;-82
2023/03/27 01:06:33;;;;;;;;;;;8.60;92.50;;;;;;5055556;28;21321;-83
2023/03/27 01:08:59;;;;;;;;;;;8.60;92.40;;;;;;5052106;28;19929;-80
2023/03/27 01:11:33;;;;;;;;;;;8.50;92.30;;;;;;5050563;28;19932;-80
2023/03/27 01:14:08;;;;;;;;;;;8.50;92.30;;;;;;5045078;28;19929;-81
2023/03/27 01:16:38;;;;;;;;;;;8.50;92.20;;;;;;5046741;28;19929;-81
2023/03/27 01:19:12;;;;;;;;;;;8.50;92.20;;;;;;5045588;28;19932;-82
2023/03/27 01:21:46;;;;;;;;;;;8.50;92.20;;;;;;5046341;28;19928;-83
2023/03/27 01:24:39;;;;;;;;;;;8.50;92.10;;;;;;5045860;28;20721;-81
2023/03/27 01:27:09;;;;;;;;;;;8.50;92.10;;;;;;5048713;28;19933;-82
2023/03/27 01:29:40;;;;;;;;;;;8.50;92.10;;;;;;5048580;28;20315;-80
2023/03/27 01:32:20;;;;;;;;;;;8.50;92.10;;;;;;5048140;28;20477;-81
2023/03/27 01:35:06;;;;;;;;;;;8.40;92.10;;;;;;5042819;28;19929;-80
2023/03/27 01:37:40;;;;;;;;;;;8.40;92.10;;;;;;5051893;28;20018;-81
2023/03/27 01:40:11;;;;;;;;;;;8.40;92.00;;;;;;5047030;28;20600;-81
2023/03/27 01:42:41;;;;;;;;;;;8.40;92.00;;;;;;5040248;28;19941;-80
2023/03/27 01:45:10;;;;;;;;;;;8.40;92.00;;;;;;5051163;28;20312;-82
2023/03/27 01:47:40;;;;;;;;;;;8.40;92.00;;;;;;5050849;28;19935;-81
2023/03/27 01:50:10;;;;;;;;;;;8.40;91.90;;;;;;5049266;28;19925;-81
2023/03/27 01:52:38;;;;;;;;;;;8.30;91.80;;;;;;5047257;28;19932;-79
2023/03/27 01:55:08;;;;;;;;;;;8.30;91.80;;;;;;5053201;28;19936;-81
2023/03/27 01:57:40;;;;;;;;;;;8.30;91.70;;;;;;5036895;28;19987;-82
2023/03/27 02:00:16;;;;;;;;;;;8.30;91.70;;;;;;5047558;28;19928;-81
2023/03/27 02:02:44;;;;;;;;;;;8.30;91.60;;;;;;5049972;28;19933;-83
2023/03/27 02:05:13;;;;;;;;;;;8.20;91.40;;;;;;5049813;28;19932;-82
2023/03/27 02:07:41;;;;;;;;;;;8.30;91.40;;;;;;5049348;28;19924;-81
2023/03/27 02:10:10;;;;;;;;;;;8.20;91.30;;;;;;5056331;28;19933;-81
2023/03/27 02:12:39;;;;;;;;;;;8.20;91.20;;;;;;5056981;28;19931;-82
2023/03/27 02:15:08;;;;;;;;;;;8.20;91.00;;;;;;5050253;28;19928;-80
2023/03/27 02:17:37;;;;;;;;;;;8.20;90.80;;;;;;5051328;28;19988;-80
2023/03/27 02:20:09;;;;;;;;;;;8.20;90.60;;;;;;5061999;28;20002;-81
2023/03/27 02:22:36;;;;;;;;;;;8.10;90.50;;;;;;5053160;28;20475;-79
2023/03/27 02:25:04;;;;;;;;;;;8.10;90.30;;;;;;5052964;28;19932;-80
2023/03/27 02:27:33;;;;;;;;;;;8.10;90.20;;;;;;5055461;28;20002;-80
2023/03/27 02:30:08;;;;;;;;;;;8.10;90.10;;;;;;5053127;28;20650;-80
2023/03/27 02:32:40;;;;;;;;;;;8.10;90.00;;;;;;5053211;28;19928;-80
2023/03/27 02:35:21;;;;;;;;;;;8.00;89.50;;;;;;5055178;28;19936;-81
2023/03/27 02:37:53;;;;;;;;;;;8.00;88.60;;;;;;5052398;28;19944;-80
2023/03/27 02:40:25;;;;;;;;;;;8.00;87.90;;;;;;5057962;28;20215;-81
2023/03/27 02:42:58;;;;;;;;;;;7.90;86.90;;;;;;5062158;28;19925;-81
2023/03/27 02:45:29;;;;;;;;;;;7.90;86.50;;;;;;5059660;28;19929;-80
2023/03/27 02:47:59;;;;;;;;;;;7.90;86.10;;;;;;5057860;28;19936;-80
2023/03/27 02:50:27;;;;;;;;;;;7.90;85.80;;;;;;5063691;28;19928;-81
2023/03/27 02:52:56;;;;;;;;;;;7.80;85.40;;;;;;5053443;28;19933;-81
2023/03/27 02:55:24;;;;;;;;;;;7.80;85.00;;;;;;5063295;28;19928;-79
2023/03/27 02:57:58;;;;;;;;;;;7.80;84.40;;;;;;5052036;28;19936;-79
2023/03/27 03:00:27;;;;;;;;;;;7.80;84.00;;;;;;5048482;28;19932;-80
2023/03/27 03:02:57;;;;;;;;;;;7.80;83.60;;;;;;5059938;28;19928;-83
2023/03/27 03:05:24;;;;;;;;;;;7.70;83.30;;;;;;5065186;28;19929;-85
2023/03/27 03:07:53;;;;;;;;;;;7.70;82.80;;;;;;5047853;28;19928;-79
2023/03/27 03:10:20;;;;;;;;;;;7.70;82.60;;;;;;5051967;28;19929;-82
2023/03/27 03:12:46;;;;;;;;;;;7.70;82.50;;;;;;5061514;28;19925;-83
2023/03/27 03:15:13;;;;;;;;;;;7.70;82.40;;;;;;5059849;28;19913;-81
2023/03/27 03:17:41;;;;;;;;;;;7.70;82.50;;;;;;5052150;28;19950;-79
2023/03/27 03:20:09;;;;;;;;;;;7.60;82.40;;;;;;5044329;28;19929;-80
2023/03/27 03:22:36;;;;;;;;;;;7.60;82.10;;;;;;5055127;28;19929;-81
2023/03/27 03:25:03;;;;;;;;;;;7.60;81.90;;;;;;5058535;28;19933;-80
2023/03/27 03:27:30;;;;;;;;;;;7.60;81.60;;;;;;5047263;28;19928;-80
2023/03/27 03:29:56;;;;;;;;;;;7.50;81.40;;;;;;5047173;28;20459;-81
2023/03/27 03:32:23;;;;;;;;;;;7.60;81.40;;;;;;5055621;28;20144;-81
2023/03/27 03:34:51;;;;;;;;;;;7.60;81.20;;;;;;5053299;28;19951;-82
2023/03/27 03:37:18;;;;;;;;;;;7.50;81.10;;;;;;5060292;28;19979;-80
2023/03/27 03:39:45;;;;;;;;;;;7.50;81.00;;;;;;5053243;28;19933;-80
2023/03/27 03:42:12;;;;;;;;;;;7.50;81.00;;;;;;5060761;28;20000;-83
2023/03/27 03:44:38;;;;;;;;;;;7.40;81.10;;;;;;5067847;28;19929;-82
2023/03/27 03:47:05;;;;;;;;;;;7.40;81.00;;;;;;5068833;28;20649;-81
2023/03/27 03:49:31;;;;;;;;;;;7.40;80.90;;;;;;5056150;28;20481;-78
2023/03/27 03:51:59;;;;;;;;;;;7.40;80.90;;;;;;5055418;28;20453;-81
2023/03/27 03:54:26;;;;;;;;;;;7.40;80.50;;;;;;5062739;28;19928;-79
2023/03/27 03:56:52;;;;;;;;;;;7.40;80.50;;;;;;5072866;28;21103;-80
2023/03/27 03:59:20;;;;;;;;;;;7.40;80.50;;;;;;5055432;28;19951;-80
2023/03/27 04:01:46;;;;;;;;;;;7.30;80.50;;;;;;5050531;28;19990;-80
2023/03/27 04:04:13;;;;;;;;;;;7.30;80.70;;;;;;5062058;28;19929;-81
2023/03/27 04:06:42;;;;;;;;;;;7.30;80.80;;;;;;5067905;28;19978;-80
2023/03/27 04:09:09;;;;;;;;;;;7.20;80.90;;;;;;5058850;28;19929;-79
2023/03/27 04:11:36;;;;;;;;;;;7.30;81.10;;;;;;5062196;28;20499;-80
2023/03/27 04:14:03;;;;;;;;;;;7.20;80.90;;;;;;5067802;28;20202;-80
2023/03/27 04:16:29;;;;;;;;;;;7.20;80.90;;;;;;5064493;28;19936;-81
2023/03/27 04:18:56;;;;;;;;;;;7.20;80.80;;;;;;5075533;28;19920;-82
2023/03/27 04:21:25;;;;;;;;;;;7.10;80.60;;;;;;5056230;28;19928;-81
2023/03/27 04:23:52;;;;;;;;;;;7.20;80.80;;;;;;5057510;28;19951;-80
2023/03/27 04:26:25;;;;;;;;;;;7.10;80.80;;;;;;5064829;28;20135;-81
2023/03/27 04:28:53;;;;;;;;;;;7.10;81.00;;;;;;5067389;28;19964;-79
2023/03/27 04:31:19;;;;;;;;;;;7.10;81.10;;;;;;5057470;28;19972;-81
2023/03/27 04:33:50;;;;;;;;;;;7.10;81.20;;;;;;5057816;28;19982;-79
2023/03/27 04:36:18;;;;;;;;;;;7.10;81.30;;;;;;5073051;28;19939;-81
2023/03/27 04:38:46;;;;;;;;;;;7.00;81.40;;;;;;5071684;28;19928;-80
2023/03/27 04:41:13;;;;;;;;;;;7.00;81.50;;;;;;5057669;28;19928;-81
2023/03/27 04:43:41;;;;;;;;;;;7.00;81.60;;;;;;5053700;28;19928;-79
2023/03/27 04:46:07;;;;;;;;;;;7.00;81.50;;;;;;5065442;28;19925;-80
2023/03/27 04:48:36;;;;;;;;;;;6.90;81.40;;;;;;5062824;28;19936;-80
2023/03/27 04:51:04;;;;;;;;;;;6.90;81.40;;;;;;5052943;28;19966;-81
2023/03/27 04:53:31;;;;;;;;;;;6.90;81.60;;;;;;5052811;28;19929;-80
2023/03/27 04:55:57;;;;;;;;;;;6.90;81.60;;;;;;5059744;28;19933;-81
2023/03/27 04:58:25;;;;;;;;;;;6.90;81.60;;;;;;5066111;28;21478;-81
2023/03/27 05:00:54;;;;;;;;;;;6.90;81.70;;;;;;5057932;28;19932;-81
2023/03/27 05:03:21;;;;;;;;;;;6.80;81.70;;;;;;5057374;28;19932;-78
2023/03/27 05:05:48;;;;;;;;;;;6.80;81.70;;;;;;5056055;28;19929;-82
2023/03/27 05:08:15;;;;;;;;;;;6.80;81.80;;;;;;5066577;28;20290;-78
2023/03/27 05:10:42;;;;;;;;;;;6.80;81.80;;;;;;5065514;28;20035;-79
2023/03/27 05:13:08;;;;;;;;;;;6.80;81.80;;;;;;5039726;28;19961;-78
2023/03/27 05:15:35;;;;;;;;;;;6.60;77.30;;;;;;5040869;28;19932;-79
2023/03/27 05:18:03;;;;;;;;;;;6.50;77.80;;;;;;5036989;28;19935;-79
2023/03/27 05:20:29;;;;;;;;;;;6.50;78.90;;;;;;5031452;28;19937;-78
2023/03/27 05:22:56;;;;;;;;;;;6.40;79.50;;;;;;5033780;28;19935;-78
2023/03/27 05:25:23;;;;;;;;;;;6.50;80.00;;;;;;5048645;28;19928;-78
2023/03/27 05:27:50;;;;;;;;;;;6.50;80.20;;;;;;5046968;28;19940;-78
2023/03/27 05:30:17;;;;;;;;;;;6.50;80.40;;;;;;5052031;28;19929;-79
2023/03/27 05:32:47;;;;;;;;;;;6.40;80.40;;;;;;5046528;28;20418;-80
2023/03/27 05:35:16;;;;;;;;;;;6.40;80.50;;;;;;5048544;28;20051;-72
2023/03/27 05:37:46;;;;;;;;;;;6.50;80.70;;;;;;5045022;28;19928;-74
2023/03/27 05:40:14;;;;;;;;;;;6.40;80.70;;;;;;5040821;28;20022;-75
2023/03/27 05:42:41;;;;;;;;;;;6.40;80.80;;;;;;5039958;28;19931;-72
2023/03/27 05:45:08;;;;;;;;;;;6.40;80.90;;;;;;5043200;28;19936;-73
2023/03/27 05:47:42;;;;;;;;;;;6.40;81.10;;;;;;5043513;28;19929;-75
2023/03/27 05:50:08;;;;;;;;;;;6.40;81.10;;;;;;5045279;28;19928;-73
2023/03/27 05:52:36;;;;;;;;;;;6.40;81.10;;;;;;5041888;28;19967;-75
2023/03/27 05:55:03;;;;;;;;;;;6.40;81.20;;;;;;5045712;28;19955;-74
2023/03/27 05:57:30;;;;;;;;;;;6.30;81.10;;;;;;5043245;28;19929;-74
2023/03/27 05:59:56;;;;;;;;;;;6.30;81.10;;;;;;5036917;28;20610;-74
2023/03/27 06:02:24;;;;;;;;;;;6.30;81.20;;;;;;5036999;28;20008;-76
2023/03/27 06:04:51;;;;;;;;;;;6.30;81.30;;;;;;5044305;28;19970;-72
2023/03/27 06:07:17;;;;;;;;;;;6.30;81.30;;;;;;5051862;28;19933;-79
2023/03/27 06:09:45;;;;;;;;;;;6.30;81.40;;;;;;5047672;28;19929;-77
2023/03/27 06:12:12;;;;;;;;;;;6.30;81.30;;;;;;5048415;28;20187;-78
2023/03/27 06:14:38;;;;;;;;;;;6.30;81.40;;;;;;5033872;28;19928;-80
2023/03/27 06:17:05;;;;;;;;;;;6.20;81.40;;;;;;5041644;28;21651;-78
2023/03/27 06:19:31;;;;;;;;;;;6.20;81.40;;;;;;5050649;28;20407;-80
2023/03/27 06:21:58;;;;;;;;;;;6.20;81.50;;;;;;5039816;28;19932;-79
2023/03/27 06:24:25;;;;;;;;;;;6.20;81.50;;;;;;5042514;28;19935;-79
2023/03/27 06:26:53;;;;;;;;;;;6.10;81.40;;;;;;5045949;28;20348;-78
2023/03/27 06:29:20;;;;;;;;;;;6.20;81.50;;;;;;5044384;28;20378;-78
2023/03/27 06:31:47;;;;;;;;;;;6.10;81.50;;;;;;5045348;28;20390;-79
2023/03/27 06:34:14;;;;;;;;;;;6.10;81.50;;;;;;5042394;28;19924;-78
2023/03/27 06:36:40;;;;;;;;;;;6.10;81.60;;;;;;5039410;28;20029;-79
2023/03/27 06:39:07;;;;;;;;;;;6.10;81.70;;;;;;5034298;28;20020;-79
2023/03/27 06:41:33;;;;;;;;;;;6.10;81.80;;;;;;5048403;28;19939;-78
2023/03/27 06:44:01;;;;;;;;;;;6.10;81.90;;;;;;5048901;28;20307;-80
2023/03/27 06:46:28;;;;;;;;;;;6.10;81.90;;;;;;5050741;28;20749;-79
2023/03/27 06:48:54;;;;;;;;;;;6.10;81.90;;;;;;5040247;28;19929;-79
2023/03/27 06:51:21;;;;;;;;;;;6.10;82.00;;;;;;5031217;28;19940;-77
2023/03/27 06:53:48;;;;;;;;;;;6.00;81.80;;;;;;5028673;28;20074;-77
2023/03/27 06:56:15;;;;;;;;;;;6.00;81.80;;;;;;5042713;28;19943;-78
2023/03/27 06:58:41;;;;;;;;;;;6.00;81.80;;;;;;5037332;28;20272;-78
2023/03/27 07:01:09;;;;;;;;;;;6.00;81.60;;;;;;5031479;28;19929;-77
2023/03/27 07:03:36;;;;;;;;;;;6.00;81.80;;;;;;5037544;28;20515;-80
2023/03/27 07:06:02;;;;;;;;;;;6.00;81.80;;;;;;5045179;28;20034;-79
2023/03/27 07:08:29;;;;;;;;;;;6.00;81.60;;;;;;5035205;28;19933;-78
2023/03/27 07:10:56;;;;;;;;;;;6.00;81.60;;;;;;5034243;28;19990;-78
2023/03/27 07:13:22;;;;;;;;;;;5.90;81.50;;;;;;5039430;28;19979;-77
2023/03/27 07:15:49;;;;;;;;;;;6.00;81.50;;;;;;5036028;28;19932;-79
2023/03/27 07:18:17;;;;;;;;;;;6.00;81.30;;;;;;5039392;28;19929;-77
2023/03/27 07:20:43;;;;;;;;;;;6.00;81.00;;;;;;5041413;28;20743;-77
2023/03/27 07:23:10;;;;;;;;;;;6.00;80.90;;;;;;5037193;28;19932;-77
2023/03/27 07:25:37;;;;;;;;;;;6.00;80.90;;;;;;5038176;28;19937;-77
2023/03/27 07:28:04;;;;;;;;;;;6.00;80.90;;;;;;5055695;28;20414;-79
2023/03/27 07:30:31;;;;;;;;;;;6.00;80.90;;;;;;5036555;28;19929;-79
2023/03/27 07:32:57;;;;;;;;;;;5.90;80.80;;;;;;5042014;28;19932;-78
2023/03/27 07:35:25;;;;;;;;;;;6.00;80.90;;;;;;5041774;28;20007;-77
2023/03/27 07:37:52;;;;;;;;;;;5.90;80.50;;;;;;5048846;28;19935;-77
2023/03/27 07:40:21;;;;;;;;;;;6.00;80.40;;;;;;5046584;28;19932;-78
2023/03/27 07:42:48;;;;;;;;;;;6.00;80.40;;;;;;5037825;28;19960;-78
2023/03/27 07:45:15;;;;;;;;;;;6.00;80.30;;;;;;5037160;28;20443;-77
2023/03/27 07:47:42;;;;;;;;;;;5.90;80.20;;;;;;5038045;28;19940;-77
2023/03/27 07:50:10;;;;;;;;;;;5.90;80.00;;;;;;5035835;28;20004;-78
2023/03/27 07:52:39;;;;;;;;;;;5.90;80.00;;;;;;5034057;28;19933;-77
2023/03/27 07:55:06;;;;;;;;;;;5.90;80.00;;;;;;5043275;28;19996;-77
2023/03/27 07:57:33;;;;;;;;;;;5.90;80.00;;;;;;5037400;28;20019;-77
2023/03/27 08:00:00;;;;;;;;;;;5.90;80.00;;;;;;5041230;28;19986;-77
2023/03/27 08:02:26;;;;;;;;;;;5.90;80.00;;;;;;5044321;28;19932;-78
2023/03/27 08:04:53;;;;;;;;;;;5.90;80.00;;;;;;5025899;28;20150;-77
2023/03/27 08:07:21;;;;;;;;;;;5.90;80.00;;;;;;5034205;28;19929;-78
2023/03/27 08:09:49;;;;;;;;;;;5.90;80.00;;;;;;5036189;28;19940;-78
2023/03/27 08:12:15;;;;;;;;;;;5.90;79.70;;;;;;5037660;28;19936;-77
2023/03/27 08:14:44;;;;;;;;;;;5.90;79.60;;;;;;5038304;28;19940;-76
2023/03/27 08:17:11;;;;;;;;;;;5.90;79.60;;;;;;5040808;28;20482;-77
2023/03/27 08:19:38;;;;;;;;;;;6.00;79.60;;;;;;5038578;28;20095;-77
2023/03/27 08:22:04;;;;;;;;;;;6.00;79.50;;;;;;5029042;28;19959;-78
2023/03/27 08:24:31;;;;;;;;;;;6.00;79.40;;;;;;5029266;28;19933;-79
2023/03/27 08:26:59;;;;;;;;;;;6.00;79.30;;;;;;5029835;28;19929;-77
2023/03/27 08:29:25;;;;;;;;;;;6.10;79.30;;;;;;5024822;28;19940;-78
2023/03/27 08:31:52;;;;;;;;;;;6.10;79.20;;;;;;5033307;28;19932;-78
2023/03/27 08:34:19;;;;;;;;;;;6.20;79.10;;;;;;5031781;28;19939;-77
2023/03/27 08:36:46;;;;;;;;;;;6.20;78.80;;;;;;5029465;28;19933;-77
2023/03/27 08:39:12;;;;;;;;;;;6.20;78.70;;;;;;5030363;28;19933;-77
2023/03/27 08:41:44;;;;;;;;;;;6.20;78.40;;;;;;5034042;28;19928;-77
2023/03/27 08:44:13;;;;;;;;;;;6.20;78.30;;;;;;5044192;28;19929;-78
2023/03/27 08:46:42;;;;;;;;;;;6.30;78.30;;;;;;5040510;28;19936;-77
2023/03/27 08:49:13;;;;;;;;;;;6.30;78.10;;;;;;5027465;28;19939;-76
2023/03/27 08:51:43;;;;;;;;;;;6.30;78.90;;;;;;5036924;28;21242;-77
2023/03/27 08:54:14;;;;;;;;;;;6.30;78.00;;;;;;5045048;28;20117;-77
2023/03/27 08:56:40;;;;;;;;;;;6.30;77.50;;;;;;5040376;28;19928;-77
2023/03/27 08:59:11;;;;;;;;;;;6.30;77.60;;;;;;5038815;28;19928;-77
2023/03/27 09:01:44;;;;;;;;;;;6.30;77.60;;;;;;5040092;28;19936;-78
2023/03/27 09:04:16;;;;;;;;;;;6.30;77.50;;;;;;5021474;28;19932;-77
2023/03/27 09:06:47;;;;;;;;;;;6.40;77.30;;;;;;5022914;28;19932;-77
2023/03/27 09:09:20;;;;;;;;;;;6.40;77.20;;;;;;5021844;28;19933;-77
2023/03/27 09:11:51;;;;;;;;;;;6.50;77.10;;;;;;5021241;28;19940;-77
2023/03/27 09:14:26;;;;;;;;;;;6.60;76.80;;;;;;5030218;28;19929;-79
2023/03/27 09:16:55;;;;;;;;;;;6.60;76.60;;;;;;5039041;28;19936;-79
2023/03/27 09:19:25;;;;;;;;;;;6.70;76.20;;;;;;5038491;28;19944;-77
2023/03/27 09:21:56;;;;;;;;;;;6.70;75.80;;;;;;5038416;28;19936;-77
2023/03/27 09:24:27;;;;;;;;;;;6.80;75.70;;;;;;5040577;28;19929;-79
2023/03/27 09:26:54;;;;;;;;;;;6.80;75.40;;;;;;5042349;28;19968;-79
2023/03/27 09:29:23;;;;;;;;;;;6.90;75.20;;;;;;5042724;28;19982;-78
2023/03/27 09:31:51;;;;;;;;;;;7.00;75.20;;;;;;5048900;28;19932;-78
2023/03/27 09:34:21;;;;;;;;;;;7.00;74.50;;;;;;5042813;28;20844;-78
2023/03/27 09:36:48;;;;;;;;;;;7.00;74.30;;;;;;5041383;28;19925;-79
2023/03/27 09:39:20;;;;;;;;;;;7.10;74.20;;;;;;5040954;28;19925;-77
2023/03/27 09:41:48;;;;;;;;;;;7.00;73.70;;;;;;5043879;28;19924;-78
2023/03/27 09:44:19;;;;;;;;;;;7.10;73.00;;;;;;5037078;28;21154;-77
2023/03/27 09:46:47;;;;;;;;;;;7.10;72.20;;;;;;5043714;28;19924;-79
2023/03/27 09:49:15;;;;;;;;;;;7.20;72.40;;;;;;5049191;28;19925;-77
2023/03/27 09:51:45;;;;;;;;;;;7.20;71.80;;;;;;5050472;28;19924;-79
2023/03/27 09:54:13;;;;;;;;;;;7.20;71.80;;;;;;5037398;28;19932;-78
2023/03/27 09:56:41;;;;;;;;;;;7.30;71.00;;;;;;5034872;28;20405;-77
2023/03/27 09:59:09;;;;;;;;;;;7.30;70.90;;;;;;5038304;28;19925;-77
2023/03/27 10:01:36;;;;;;;;;;;7.40;70.70;;;;;;5040415;28;19962;-77
2023/03/27 10:04:11;;;;;;;;;;;7.40;70.20;;;;;;5034248;28;21752;-76
2023/03/27 10:06:40;;;;;;;;;;;7.50;70.00;;;;;;5044678;28;20015;-78
2023/03/27 10:09:13;;;;;;;;;;;7.50;70.40;;;;;;5038940;28;20399;-78
2023/03/27 10:11:41;;;;;;;;;;;7.60;70.40;;;;;;5043402;28;21280;-77
2023/03/27 10:14:12;;;;;;;;;;;7.70;69.70;;;;;;5033466;28;19928;-78
2023/03/27 10:16:39;;;;;;;;;;;7.70;69.60;;;;;;5037374;28;20003;-78
2023/03/27 10:19:12;;;;;;;;;;;7.80;69.20;;;;;;5048110;28;20029;-78
2023/03/27 10:21:41;;;;;;;;;;;7.80;69.40;;;;;;5039235;28;19983;-77
2023/03/27 10:24:18;;;;;;;;;;;7.80;69.20;;;;;;5047150;28;19933;-77
2023/03/27 10:26:46;;;;;;;;;;;7.90;68.40;;;;;;5048855;28;19939;-79
2023/03/27 10:29:24;;;;;;;;;;;7.90;68.70;;;;;;5043089;28;20813;-79
2023/03/27 10:31:52;;;;;;;;;;;8.00;69.40;;;;;;5042050;28;19933;-77
2023/03/27 10:34:32;;;;;;;;;;;8.00;69.90;;;;;;5044545;28;19980;-79
2023/03/27 10:37:02;;;;;;;;;;;8.10;70.00;;;;;;5040099;28;20336;-77
2023/03/27 10:39:29;;;;;;;;;;;8.10;68.80;;;;;;5043816;28;19968;-77
2023/03/27 10:41:57;;;;;;;;;;;8.10;68.80;;;;;;5053869;28;19936;-78
2023/03/27 10:44:25;;;;;;;;;;;8.10;67.40;;;;;;5039119;28;19933;-78
2023/03/27 10:46:52;;;;;;;;;;;8.10;67.70;;;;;;5025170;28;19948;-79
2023/03/27 10:49:24;;;;;;;;;;;8.10;68.30;;;;;;5027010;28;19936;-77
2023/03/27 10:51:52;;;;;;;;;;;8.10;68.90;;;;;;5040664;28;19990;-79
2023/03/27 10:54:33;;;;;;;;;;;8.00;65.90;;;;;;5042001;28;20394;-79
2023/03/27 10:57:02;;;;;;;;;;;8.00;66.50;;;;;;5043772;28;19958;-82
2023/03/27 10:59:30;;;;;;;;;;;8.00;68.60;;;;;;5036694;28;19956;-78
2023/03/27 11:01:58;;;;;;;;;;;8.00;68.10;;;;;;5049590;28;20382;-80
2023/03/27 11:04:32;;;;;;;;;;;8.00;68.90;;;;;;5050850;28;20322;-79
2023/03/27 11:07:01;;;;;;;;;;;8.10;67.60;;;;;;5051531;28;19932;-79
2023/03/27 11:09:30;;;;;;;;;;;8.10;67.90;;;;;;5043484;28;20325;-78
2023/03/27 11:11:59;;;;;;;;;;;8.20;68.10;;;;;;5037685;28;19929;-78
2023/03/27 11:14:31;;;;;;;;;;;8.20;67.30;;;;;;5052973;28;19936;-78
2023/03/27 11:17:02;;;;;;;;;;;8.20;67.90;;;;;;5048289;28;19929;-78
2023/03/27 11:19:38;;;;;;;;;;;8.20;68.60;;;;;;5054807;28;19928;-80
2023/03/27 11:22:06;;;;;;;;;;;8.20;67.20;;;;;;5055415;28;19936;-78
2023/03/27 11:24:37;;;;;;;;;;;8.20;68.20;;;;;;5045744;28;19936;-78
2023/03/27 11:27:06;;;;;;;;;;;8.20;67.50;;;;;;5039946;28;19928;-77
2023/03/27 11:29:37;;;;;;;;;;;8.20;67.30;;;;;;5036108;28;19932;-79
2023/03/27 11:32:07;;;;;;;;;;;8.20;67.20;;;;;;5039915;28;20310;-78
2023/03/27 11:34:36;;;;;;;;;;;8.30;67.40;;;;;;5045729;28;19932;-78
2023/03/27 11:37:05;;;;;;;;;;;8.30;67.40;;;;;;5045599;28;19925;-77
2023/03/27 11:39:35;;;;;;;;;;;8.40;67.70;;;;;;5045817;28;19929;-78
2023/03/27 11:42:05;;;;;;;;;;;8.40;67.80;;;;;;5023887;28;19932;-78
2023/03/27 11:44:32;;;;;;;;;;;8.50;68.00;;;;;;5035702;28;19929;-80
2023/03/27 11:47:07;;;;;;;;;;;8.60;67.30;;;;;;5039794;28;19982;-77
2023/03/27 11:49:43;;;;;;;;;;;8.60;67.30;;;;;;5036872;28;19928;-79
2023/03/27 11:52:14;;;;;;;;;;;8.70;67.00;;;;;;5047861;28;19935;-79
2023/03/27 11:54:48;;;;;;;;;;;8.70;67.30;;;;;;5055949;28;19929;-77
2023/03/27 11:57:18;;;;;;;;;;;8.80;68.00;;;;;;5039389;28;20691;-81
2023/03/27 11:59:52;;;;;;;;;;;8.80;68.30;;;;;;5027854;28;19925;-77
2023/03/27 12:02:35;;;;;;;;;;;8.80;67.10;;;;;;5034414;28;19961;-81
2023/03/27 12:05:05;;;;;;;;;;;8.80;66.90;;;;;;5032854;28;19941;-78
2023/03/27 12:07:41;;;;;;;;;;;8.80;67.10;;;;;;5038767;28;19924;-77
2023/03/27 12:10:19;;;;;;;;;;;8.80;66.70;;;;;;5039065;28;19956;-78
2023/03/27 12:12:54;;;;;;;;;;;8.80;67.30;;;;;;5038459;28;19931;-79
2023/03/27 12:15:27;;;;;;;;;;;8.70;67.50;;;;;;5040158;28;19925;-78
2023/03/27 12:18:03;;;;;;;;;;;8.80;68.10;;;;;;5032251;28;19928;-80
2023/03/27 12:20:53;;;;;;;;;;;8.70;68.20;;;;;;5046330;28;19933;-80
2023/03/27 12:23:44;;;;;;;;;;;8.70;68.20;;;;;;5040590;28;19933;-78
2023/03/27 12:26:26;;;;;;;;;;;8.70;67.40;;;;;;5036009;28;21499;-80
2023/03/27 12:28:59;;;;;;;;;;;8.70;67.40;;;;;;5044846;28;20470;-78
2023/03/27 12:31:31;;;;;;;;;;;8.60;67.70;;;;;;5047981;28;20837;-78
2023/03/27 12:34:01;;;;;;;;;;;8.70;68.00;;;;;;5053600;28;20013;-78
2023/03/27 12:36:30;;;;;;;;;;;8.60;69.00;;;;;;5051341;28;20132;-79
2023/03/27 12:38:58;;;;;;;;;;;8.60;70.30;;;;;;5051357;28;19932;-79
2023/03/27 12:41:25;;;;;;;;;;;8.50;71.10;;;;;;5053913;28;19936;-79
2023/03/27 12:43:56;;;;;;;;;;;8.40;72.40;;;;;;5049403;28;21057;-79
2023/03/27 12:46:31;;;;;;;;;;;8.40;73.50;;;;;;5052547;28;20047;-79
2023/03/27 12:49:00;;;;;;;;;;;8.30;74.80;;;;;;5041888;28;20342;-78
2023/03/27 12:51:40;;;;;;;;;;;8.30;75.80;;;;;;5023036;28;19933;-78
2023/03/27 12:54:23;;;;;;;;;;;8.30;76.60;;;;;;5020050;28;20127;-78
2023/03/27 12:56:50;;;;;;;;;;;8.30;76.80;;;;;;5021033;28;19937;-77
2023/03/27 12:59:22;;;;;;;;;;;8.40;77.80;;;;;;5021821;28;20031;-79
2023/03/27 13:02:09;;;;;;;;;;;8.50;77.70;;;;;;5023597;28;19939;-78
2023/03/27 13:04:46;;;;;;;;;;;8.60;76.90;;;;;;4991987;28;19933;-78
2023/03/27 13:07:19;;;;;;;;;;;8.80;77.20;;;;;;5021878;28;19983;-79
2023/03/27 13:09:51;;;;;;;;;;;8.80;76.70;;;;;;5024673;28;20389;-77
2023/03/27 13:12:23;;;;;;;;;;;9.00;76.80;;;;;;5030057;28;19932;-79
2023/03/27 13:15:20;;;;;;;;;;;9.00;76.60;;;;;;5029860;28;19933;-78
2023/03/27 13:17:56;;;;;;;;;;;9.10;76.50;;;;;;4977995;28;20555;-80
2023/03/27 13:20:27;;;;;;;;;;;9.10;76.60;;;;;;5034076;28;19931;-78
2023/03/27 13:23:05;;;;;;;;;;;9.10;76.40;;;;;;5039138;28;19943;-78
2023/03/27 13:25:38;;;;;;;;;;;9.10;76.40;;;;;;5053869;28;19929;-79
2023/03/27 13:28:21;;;;;;;;;;;9.10;76.50;;;;;;5048913;28;19933;-78
2023/03/27 13:30:49;;;;;;;;;;;9.10;76.50;;;;;;5040849;28;20047;-78
2023/03/27 13:33:16;;;;;;;;;;;9.10;76.30;;;;;;5029845;28;19933;-79
2023/03/27 13:35:51;;;;;;;;;;;9.10;76.50;;;;;;5041135;28;20763;-78
2023/03/27 13:38:39;;;;;;;;;;;9.10;76.50;;;;;;5043986;28;19929;-80
2023/03/27 13:44:10;;;;;;;;;;;9.10;75.70;;;;;;5029643;28;20409;-75
2023/03/27 13:46:38;;;;;;;;;;;9.20;75.50;;;;;;5041033;28;19928;-75
2023/03/27 13:49:10;;;;;;;;;;;9.20;75.50;;;;;;5044326;28;20028;-74
2023/03/27 13:51:51;;;;;;;;;;;9.20;75.30;;;;;;5052023;28;19950;-75
2023/03/27 13:54:41;;;;;;;;;;;9.20;75.40;;;;;;5038131;28;19990;-76
2023/03/27 13:57:16;;;;;;;;;;;9.10;75.60;;;;;;5021948;28;19934;-74
2023/03/27 14:00:03;;;;;;;;;;;9.10;75.30;;;;;;5042396;28;19932;-73
2023/03/27 14:02:43;;;;;;;;;;;9.10;75.00;;;;;;5042050;28;20538;-75
2023/03/27 14:05:20;;;;;;;;;;;9.00;75.50;;;;;;5043393;28;19936;-73
2023/03/27 14:07:56;;;;;;;;;;;8.90;75.90;;;;;;5044885;28;19932;-73
2023/03/27 14:10:32;;;;;;;;;;;8.80;77.40;;;;;;5050502;28;19929;-72
2023/03/27 14:13:07;;;;;;;;;;;8.80;77.40;;;;;;5045348;28;19929;-74
2023/03/27 14:15:52;;;;;;;;;;;8.70;77.90;;;;;;5037611;28;19929;-73
2023/03/27 14:18:30;;;;;;;;;;;8.70;78.20;;;;;;5040426;28;19939;-79
2023/03/27 14:20:59;;;;;;;;;;;8.60;78.50;;;;;;5047448;28;19940;-77
2023/03/27 14:23:28;;;;;;;;;;;8.50;79.20;;;;;;5038739;28;19929;-79
2023/03/27 14:25:59;;;;;;;;;;;8.60;79.40;;;;;;5049845;28;19958;-79
2023/03/27 14:28:31;;;;;;;;;;;8.60;79.70;;;;;;5039831;28;19983;-77
2023/03/27 14:30:59;;;;;;;;;;;8.60;81.40;;;;;;5045114;28;20724;-79
2023/03/27 14:33:27;;;;;;;;;;;8.60;83.80;;;;;;5044454;28;19929;-77
2023/03/27 14:35:55;;;;;;;;;;;8.70;86.40;;;;;;5042359;28;19933;-77
2023/03/27 14:38:23;;;;;;;;;;;8.80;88.50;;;;;;5046004;28;20390;-78
2023/03/27 14:40:51;;;;;;;;;;;8.90;89.80;;;;;;5042526;28;20422;-78
2023/03/27 14:43:18;;;;;;;;;;;8.90;90.30;;;;;;5042793;28;19955;-79
2023/03/27 14:45:48;;;;;;;;;;;9.10;90.80;;;;;;5021274;28;19929;-76
2023/03/27 14:48:19;;;;;;;;;;;9.10;91.10;;;;;;5018724;28;19940;-78
2023/03/27 14:50:47;;;;;;;;;;;9.20;91.40;;;;;;5001963;28;19935;-76